sensor_id;sensor_type;location;lat;lon;timestamp;P1;durP1;ratioP1;P2;durP2;ratioP2
18302;SDS011;9277;37.980;23.748;2022-12-18T00:01:43;19.50;;;7.25;;
18302;SDS011;9277;37.980;23.748;2022-12-18T00:04:18;12.80;;;7.35;;
18302;SDS011;9277;37.980;23.748;2022-12-18T00:06:46;19.20;;;7.13;;
18302;SDS011;9277;37.980;23.748;2022-12-18T00:09:12;20.67;;;7.47;;
18302;SDS011;9277;37.980;23.748;2022-12-18T00:11:41;23.80;;;8.15;;
18302;SDS011;9277;37.980;23.748;2022-12-18T00:14:08;21.13;;;8.57;;
18302;SDS011;9277;37.980;23.748;2022-12-18T00:16:36;22.55;;;8.02;;
18302;SDS011;9277;37.980;23.748;2022-12-18T00:19:03;20.85;;;8.27;;
18302;SDS011;9277;37.980;23.748;2022-12-18T00:21:30;18.73;;;8.55;;
18302;SDS011;9277;37.980;23.748;2022-12-18T00:23:58;17.63;;;8.70;;
18302;SDS011;9277;37.980;23.748;2022-12-18T00:26:26;15.30;;;7.18;;
18302;SDS011;9277;37.980;23.748;2022-12-18T00:28:55;32.28;;;8.25;;
18302;SDS011;9277;37.980;23.748;2022-12-18T00:31:24;18.48;;;6.95;;
18302;SDS011;9277;37.980;23.748;2022-12-18T00:33:51;17.73;;;6.72;;
18302;SDS011;9277;37.980;23.748;2022-12-18T00:36:20;18.95;;;7.95;;
18302;SDS011;9277;37.980;23.748;2022-12-18T00:38:47;16.42;;;7.20;;
18302;SDS011;9277;37.980;23.748;2022-12-18T00:41:14;18.63;;;6.63;;
18302;SDS011;9277;37.980;23.748;2022-12-18T00:44:03;25.20;;;6.93;;
18302;SDS011;9277;37.980;23.748;2022-12-18T00:46:29;22.88;;;6.25;;
18302;SDS011;9277;37.980;23.748;2022-12-18T00:48:56;12.73;;;5.38;;
18302;SDS011;9277;37.980;23.748;2022-12-18T00:51:23;20.05;;;4.90;;
18302;SDS011;9277;37.980;23.748;2022-12-18T00:53:50;14.05;;;6.60;;
18302;SDS011;9277;37.980;23.748;2022-12-18T00:56:17;13.10;;;6.05;;
18302;SDS011;9277;37.980;23.748;2022-12-18T00:58:50;15.57;;;5.85;;
18302;SDS011;9277;37.980;23.748;2022-12-18T01:01:18;10.43;;;5.35;;
18302;SDS011;9277;37.980;23.748;2022-12-18T01:03:45;19.25;;;5.88;;
18302;SDS011;9277;37.980;23.748;2022-12-18T01:06:13;14.60;;;4.55;;
18302;SDS011;9277;37.980;23.748;2022-12-18T01:08:40;13.15;;;3.90;;
18302;SDS011;9277;37.980;23.748;2022-12-18T01:11:07;10.40;;;3.80;;
18302;SDS011;9277;37.980;23.748;2022-12-18T01:13:34;6.28;;;3.10;;
18302;SDS011;9277;37.980;23.748;2022-12-18T01:16:01;6.47;;;2.80;;
18302;SDS011;9277;37.980;23.748;2022-12-18T01:18:29;12.65;;;2.58;;
18302;SDS011;9277;37.980;23.748;2022-12-18T01:20:56;9.25;;;3.33;;
18302;SDS011;9277;37.980;23.748;2022-12-18T01:23:22;11.73;;;3.75;;
18302;SDS011;9277;37.980;23.748;2022-12-18T01:25:51;7.50;;;2.80;;
18302;SDS011;9277;37.980;23.748;2022-12-18T01:28:18;7.45;;;2.90;;
18302;SDS011;9277;37.980;23.748;2022-12-18T01:30:45;5.65;;;2.85;;
18302;SDS011;9277;37.980;23.748;2022-12-18T01:33:11;17.40;;;3.22;;
18302;SDS011;9277;37.980;23.748;2022-12-18T01:35:43;12.55;;;3.05;;
18302;SDS011;9277;37.980;23.748;2022-12-18T01:38:10;7.75;;;2.95;;
18302;SDS011;9277;37.980;23.748;2022-12-18T01:40:36;11.57;;;2.95;;
18302;SDS011;9277;37.980;23.748;2022-12-18T01:43:03;6.00;;;3.47;;
18302;SDS011;9277;37.980;23.748;2022-12-18T01:45:30;11.43;;;2.75;;
18302;SDS011;9277;37.980;23.748;2022-12-18T01:47:58;6.13;;;2.30;;
18302;SDS011;9277;37.980;23.748;2022-12-18T01:50:27;9.65;;;2.70;;
18302;SDS011;9277;37.980;23.748;2022-12-18T01:52:56;11.18;;;3.13;;
18302;SDS011;9277;37.980;23.748;2022-12-18T01:55:25;13.35;;;2.60;;
18302;SDS011;9277;37.980;23.748;2022-12-18T01:57:52;13.02;;;3.40;;
18302;SDS011;9277;37.980;23.748;2022-12-18T02:00:20;6.75;;;2.63;;
18302;SDS011;9277;37.980;23.748;2022-12-18T02:02:47;5.30;;;2.95;;
18302;SDS011;9277;37.980;23.748;2022-12-18T02:05:15;15.45;;;3.78;;
18302;SDS011;9277;37.980;23.748;2022-12-18T02:07:45;8.82;;;3.30;;
18302;SDS011;9277;37.980;23.748;2022-12-18T02:10:17;11.95;;;4.07;;
18302;SDS011;9277;37.980;23.748;2022-12-18T02:12:48;14.15;;;3.35;;
18302;SDS011;9277;37.980;23.748;2022-12-18T02:15:18;13.27;;;4.47;;
18302;SDS011;9277;37.980;23.748;2022-12-18T02:17:47;8.52;;;3.97;;
18302;SDS011;9277;37.980;23.748;2022-12-18T02:20:16;12.52;;;4.72;;
18302;SDS011;9277;37.980;23.748;2022-12-18T02:22:48;12.48;;;3.85;;
18302;SDS011;9277;37.980;23.748;2022-12-18T02:25:24;8.30;;;3.42;;
18302;SDS011;9277;37.980;23.748;2022-12-18T02:27:57;10.23;;;3.38;;
18302;SDS011;9277;37.980;23.748;2022-12-18T02:30:24;7.22;;;3.65;;
18302;SDS011;9277;37.980;23.748;2022-12-18T02:32:52;18.98;;;4.32;;
18302;SDS011;9277;37.980;23.748;2022-12-18T02:35:22;9.63;;;4.22;;
18302;SDS011;9277;37.980;23.748;2022-12-18T02:37:49;11.10;;;4.32;;
18302;SDS011;9277;37.980;23.748;2022-12-18T02:40:24;13.48;;;5.25;;
18302;SDS011;9277;37.980;23.748;2022-12-18T02:42:51;15.00;;;4.68;;
18302;SDS011;9277;37.980;23.748;2022-12-18T02:45:20;15.20;;;5.88;;
18302;SDS011;9277;37.980;23.748;2022-12-18T02:47:47;11.27;;;5.20;;
18302;SDS011;9277;37.980;23.748;2022-12-18T02:50:16;8.95;;;5.13;;
18302;SDS011;9277;37.980;23.748;2022-12-18T02:52:46;9.55;;;4.65;;
18302;SDS011;9277;37.980;23.748;2022-12-18T02:55:17;11.38;;;4.45;;
18302;SDS011;9277;37.980;23.748;2022-12-18T02:57:46;17.48;;;4.85;;
18302;SDS011;9277;37.980;23.748;2022-12-18T03:00:16;10.93;;;4.43;;
18302;SDS011;9277;37.980;23.748;2022-12-18T03:02:45;12.20;;;4.43;;
18302;SDS011;9277;37.980;23.748;2022-12-18T03:05:15;12.65;;;4.40;;
18302;SDS011;9277;37.980;23.748;2022-12-18T03:07:44;13.38;;;4.35;;
18302;SDS011;9277;37.980;23.748;2022-12-18T03:10:13;11.88;;;4.28;;
18302;SDS011;9277;37.980;23.748;2022-12-18T03:12:42;8.57;;;3.80;;
18302;SDS011;9277;37.980;23.748;2022-12-18T03:15:11;15.32;;;3.95;;
18302;SDS011;9277;37.980;23.748;2022-12-18T03:17:40;7.35;;;3.65;;
18302;SDS011;9277;37.980;23.748;2022-12-18T03:20:11;10.43;;;4.10;;
18302;SDS011;9277;37.980;23.748;2022-12-18T03:22:39;6.65;;;3.35;;
18302;SDS011;9277;37.980;23.748;2022-12-18T03:25:08;11.15;;;3.50;;
18302;SDS011;9277;37.980;23.748;2022-12-18T03:27:36;8.88;;;3.30;;
18302;SDS011;9277;37.980;23.748;2022-12-18T03:30:05;13.82;;;3.72;;
18302;SDS011;9277;37.980;23.748;2022-12-18T03:32:36;10.52;;;3.35;;
18302;SDS011;9277;37.980;23.748;2022-12-18T03:35:04;11.98;;;3.20;;
18302;SDS011;9277;37.980;23.748;2022-12-18T03:37:32;16.85;;;3.67;;
18302;SDS011;9277;37.980;23.748;2022-12-18T03:39:59;12.00;;;3.10;;
18302;SDS011;9277;37.980;23.748;2022-12-18T03:42:27;19.90;;;3.40;;
18302;SDS011;9277;37.980;23.748;2022-12-18T03:44:56;12.65;;;3.72;;
18302;SDS011;9277;37.980;23.748;2022-12-18T03:47:26;12.13;;;3.08;;
18302;SDS011;9277;37.980;23.748;2022-12-18T03:49:55;8.68;;;2.90;;
18302;SDS011;9277;37.980;23.748;2022-12-18T03:52:25;10.63;;;3.10;;
18302;SDS011;9277;37.980;23.748;2022-12-18T03:54:54;7.55;;;3.58;;
18302;SDS011;9277;37.980;23.748;2022-12-18T03:57:22;9.82;;;2.95;;
18302;SDS011;9277;37.980;23.748;2022-12-18T03:59:50;12.00;;;3.13;;
18302;SDS011;9277;37.980;23.748;2022-12-18T04:02:18;8.82;;;3.17;;
18302;SDS011;9277;37.980;23.748;2022-12-18T04:04:45;9.85;;;4.05;;
18302;SDS011;9277;37.980;23.748;2022-12-18T04:07:14;4.93;;;2.60;;
18302;SDS011;9277;37.980;23.748;2022-12-18T04:09:41;15.18;;;3.30;;
18302;SDS011;9277;37.980;23.748;2022-12-18T04:12:09;6.85;;;3.22;;
18302;SDS011;9277;37.980;23.748;2022-12-18T04:14:36;7.25;;;3.08;;
18302;SDS011;9277;37.980;23.748;2022-12-18T04:17:03;7.75;;;2.80;;
18302;SDS011;9277;37.980;23.748;2022-12-18T04:19:30;8.98;;;3.10;;
18302;SDS011;9277;37.980;23.748;2022-12-18T04:21:56;11.10;;;2.88;;
18302;SDS011;9277;37.980;23.748;2022-12-18T04:24:23;11.93;;;2.72;;
18302;SDS011;9277;37.980;23.748;2022-12-18T04:26:50;11.23;;;3.47;;
18302;SDS011;9277;37.980;23.748;2022-12-18T04:29:18;7.00;;;2.80;;
18302;SDS011;9277;37.980;23.748;2022-12-18T04:31:45;14.32;;;2.75;;
18302;SDS011;9277;37.980;23.748;2022-12-18T04:34:12;10.90;;;2.65;;
18302;SDS011;9277;37.980;23.748;2022-12-18T04:36:39;10.32;;;2.72;;
18302;SDS011;9277;37.980;23.748;2022-12-18T04:39:05;6.20;;;2.92;;
18302;SDS011;9277;37.980;23.748;2022-12-18T04:41:32;8.80;;;2.90;;
18302;SDS011;9277;37.980;23.748;2022-12-18T04:43:59;7.22;;;2.70;;
18302;SDS011;9277;37.980;23.748;2022-12-18T04:46:27;8.38;;;2.97;;
18302;SDS011;9277;37.980;23.748;2022-12-18T04:48:54;9.27;;;2.40;;
18302;SDS011;9277;37.980;23.748;2022-12-18T04:51:21;4.97;;;2.20;;
18302;SDS011;9277;37.980;23.748;2022-12-18T04:53:47;10.52;;;2.90;;
18302;SDS011;9277;37.980;23.748;2022-12-18T04:56:14;9.13;;;2.08;;
18302;SDS011;9277;37.980;23.748;2022-12-18T04:58:42;13.90;;;2.55;;
18302;SDS011;9277;37.980;23.748;2022-12-18T05:01:09;7.53;;;2.35;;
18302;SDS011;9277;37.980;23.748;2022-12-18T05:03:38;5.47;;;2.38;;
18302;SDS011;9277;37.980;23.748;2022-12-18T05:06:05;10.95;;;2.30;;
18302;SDS011;9277;37.980;23.748;2022-12-18T05:08:32;8.35;;;2.20;;
18302;SDS011;9277;37.980;23.748;2022-12-18T05:10:59;8.88;;;2.10;;
18302;SDS011;9277;37.980;23.748;2022-12-18T05:13:26;9.30;;;2.60;;
18302;SDS011;9277;37.980;23.748;2022-12-18T05:15:53;8.52;;;2.90;;
18302;SDS011;9277;37.980;23.748;2022-12-18T05:18:20;14.90;;;2.88;;
18302;SDS011;9277;37.980;23.748;2022-12-18T05:20:48;3.60;;;1.67;;
18302;SDS011;9277;37.980;23.748;2022-12-18T05:23:15;10.20;;;2.20;;
18302;SDS011;9277;37.980;23.748;2022-12-18T05:25:42;12.60;;;2.85;;
18302;SDS011;9277;37.980;23.748;2022-12-18T05:28:08;9.43;;;2.90;;
18302;SDS011;9277;37.980;23.748;2022-12-18T05:30:35;5.18;;;2.55;;
18302;SDS011;9277;37.980;23.748;2022-12-18T05:33:02;8.30;;;2.13;;
18302;SDS011;9277;37.980;23.748;2022-12-18T05:35:29;6.30;;;2.55;;
18302;SDS011;9277;37.980;23.748;2022-12-18T05:37:57;8.68;;;2.30;;
18302;SDS011;9277;37.980;23.748;2022-12-18T05:40:24;8.25;;;2.72;;
18302;SDS011;9277;37.980;23.748;2022-12-18T05:42:50;9.32;;;2.63;;
18302;SDS011;9277;37.980;23.748;2022-12-18T05:45:17;8.45;;;2.67;;
18302;SDS011;9277;37.980;23.748;2022-12-18T05:47:45;11.32;;;3.65;;
18302;SDS011;9277;37.980;23.748;2022-12-18T05:50:12;9.60;;;3.22;;
18302;SDS011;9277;37.980;23.748;2022-12-18T05:52:39;8.85;;;2.30;;
18302;SDS011;9277;37.980;23.748;2022-12-18T05:55:07;9.70;;;2.72;;
18302;SDS011;9277;37.980;23.748;2022-12-18T05:57:34;5.97;;;2.80;;
18302;SDS011;9277;37.980;23.748;2022-12-18T06:00:01;4.88;;;2.35;;
18302;SDS011;9277;37.980;23.748;2022-12-18T06:02:28;7.43;;;2.63;;
18302;SDS011;9277;37.980;23.748;2022-12-18T06:04:54;8.93;;;2.47;;
18302;SDS011;9277;37.980;23.748;2022-12-18T06:07:21;8.98;;;2.95;;
18302;SDS011;9277;37.980;23.748;2022-12-18T06:09:48;7.28;;;2.83;;
18302;SDS011;9277;37.980;23.748;2022-12-18T06:12:16;7.10;;;2.88;;
18302;SDS011;9277;37.980;23.748;2022-12-18T06:14:43;9.50;;;3.60;;
18302;SDS011;9277;37.980;23.748;2022-12-18T06:17:10;8.05;;;2.50;;
18302;SDS011;9277;37.980;23.748;2022-12-18T06:19:37;11.35;;;3.22;;
18302;SDS011;9277;37.980;23.748;2022-12-18T06:22:03;7.45;;;2.83;;
18302;SDS011;9277;37.980;23.748;2022-12-18T06:24:30;10.77;;;3.40;;
18302;SDS011;9277;37.980;23.748;2022-12-18T06:26:58;7.55;;;3.33;;
18302;SDS011;9277;37.980;23.748;2022-12-18T06:29:26;7.05;;;3.30;;
18302;SDS011;9277;37.980;23.748;2022-12-18T06:31:53;8.05;;;2.85;;
18302;SDS011;9277;37.980;23.748;2022-12-18T06:34:20;8.68;;;3.13;;
18302;SDS011;9277;37.980;23.748;2022-12-18T06:36:47;10.00;;;3.70;;
18302;SDS011;9277;37.980;23.748;2022-12-18T06:39:14;12.93;;;4.10;;
18302;SDS011;9277;37.980;23.748;2022-12-18T07:17:45;10.18;;;3.70;;
18302;SDS011;9277;37.980;23.748;2022-12-18T07:20:11;8.77;;;3.95;;
18302;SDS011;9277;37.980;23.748;2022-12-18T07:22:38;13.90;;;3.08;;
18302;SDS011;9277;37.980;23.748;2022-12-18T07:25:05;8.13;;;4.10;;
18302;SDS011;9277;37.980;23.748;2022-12-18T07:27:33;30.20;;;4.80;;
18302;SDS011;9277;37.980;23.748;2022-12-18T07:30:00;10.35;;;4.38;;
18302;SDS011;9277;37.980;23.748;2022-12-18T07:32:27;12.20;;;4.57;;
18302;SDS011;9277;37.980;23.748;2022-12-18T07:34:55;18.30;;;5.80;;
18302;SDS011;9277;37.980;23.748;2022-12-18T07:37:22;16.30;;;5.03;;
18302;SDS011;9277;37.980;23.748;2022-12-18T07:39:49;7.50;;;3.72;;
18302;SDS011;9277;37.980;23.748;2022-12-18T07:42:16;11.50;;;4.10;;
18302;SDS011;9277;37.980;23.748;2022-12-18T07:44:57;9.40;;;3.83;;
18302;SDS011;9277;37.980;23.748;2022-12-18T07:47:24;6.22;;;2.92;;
18302;SDS011;9277;37.980;23.748;2022-12-18T07:49:51;7.65;;;3.05;;
18302;SDS011;9277;37.980;23.748;2022-12-18T07:52:19;12.85;;;3.35;;
18302;SDS011;9277;37.980;23.748;2022-12-18T07:54:47;6.78;;;3.03;;
18302;SDS011;9277;37.980;23.748;2022-12-18T07:57:15;14.57;;;3.65;;
18302;SDS011;9277;37.980;23.748;2022-12-18T07:59:42;7.75;;;3.00;;
18302;SDS011;9277;37.980;23.748;2022-12-18T08:02:09;14.18;;;3.25;;
18302;SDS011;9277;37.980;23.748;2022-12-18T08:04:35;8.85;;;3.47;;
18302;SDS011;9277;37.980;23.748;2022-12-18T08:07:02;10.82;;;3.05;;
18302;SDS011;9277;37.980;23.748;2022-12-18T08:09:30;9.77;;;3.92;;
18302;SDS011;9277;37.980;23.748;2022-12-18T08:11:57;11.38;;;4.30;;
18302;SDS011;9277;37.980;23.748;2022-12-18T08:14:24;10.73;;;5.10;;
18302;SDS011;9277;37.980;23.748;2022-12-18T08:16:51;13.23;;;4.50;;
18302;SDS011;9277;37.980;23.748;2022-12-18T08:19:18;11.90;;;4.53;;
18302;SDS011;9277;37.980;23.748;2022-12-18T08:21:47;16.58;;;4.88;;
18302;SDS011;9277;37.980;23.748;2022-12-18T08:24:14;10.88;;;3.70;;
18302;SDS011;9277;37.980;23.748;2022-12-18T08:26:42;10.63;;;4.50;;
18302;SDS011;9277;37.980;23.748;2022-12-18T08:29:09;10.90;;;4.57;;
18302;SDS011;9277;37.980;23.748;2022-12-18T08:31:36;11.35;;;3.90;;
18302;SDS011;9277;37.980;23.748;2022-12-18T08:34:03;13.57;;;3.92;;
18302;SDS011;9277;37.980;23.748;2022-12-18T08:36:29;12.98;;;4.32;;
18302;SDS011;9277;37.980;23.748;2022-12-18T08:38:56;7.60;;;4.57;;
18302;SDS011;9277;37.980;23.748;2022-12-18T08:41:23;13.48;;;4.93;;
18302;SDS011;9277;37.980;23.748;2022-12-18T08:43:52;16.90;;;5.05;;
18302;SDS011;9277;37.980;23.748;2022-12-18T08:46:36;12.23;;;5.05;;
18302;SDS011;9277;37.980;23.748;2022-12-18T08:49:03;18.23;;;7.88;;
18302;SDS011;9277;37.980;23.748;2022-12-18T08:51:31;28.85;;;8.45;;
18302;SDS011;9277;37.980;23.748;2022-12-18T08:53:57;20.88;;;6.78;;
18302;SDS011;9277;37.980;23.748;2022-12-18T08:56:25;16.23;;;6.47;;
18302;SDS011;9277;37.980;23.748;2022-12-18T08:58:54;22.23;;;6.65;;
18302;SDS011;9277;37.980;23.748;2022-12-18T09:01:21;13.23;;;5.72;;
18302;SDS011;9277;37.980;23.748;2022-12-18T09:03:48;12.32;;;4.05;;
18302;SDS011;9277;37.980;23.748;2022-12-18T09:06:15;8.95;;;3.17;;
18302;SDS011;9277;37.980;23.748;2022-12-18T09:08:42;24.73;;;5.55;;
18302;SDS011;9277;37.980;23.748;2022-12-18T09:11:11;11.88;;;4.28;;
18302;SDS011;9277;37.980;23.748;2022-12-18T09:13:39;12.98;;;4.57;;
18302;SDS011;9277;37.980;23.748;2022-12-18T09:16:07;13.18;;;4.97;;
18302;SDS011;9277;37.980;23.748;2022-12-18T09:18:34;13.95;;;4.13;;
18302;SDS011;9277;37.980;23.748;2022-12-18T09:21:07;15.70;;;4.43;;
18302;SDS011;9277;37.980;23.748;2022-12-18T09:23:33;14.85;;;4.10;;
18302;SDS011;9277;37.980;23.748;2022-12-18T09:26:00;17.42;;;3.65;;
18302;SDS011;9277;37.980;23.748;2022-12-18T09:28:27;11.07;;;3.72;;
18302;SDS011;9277;37.980;23.748;2022-12-18T09:30:54;10.43;;;4.10;;
18302;SDS011;9277;37.980;23.748;2022-12-18T09:33:23;12.13;;;3.88;;
18302;SDS011;9277;37.980;23.748;2022-12-18T09:35:49;9.63;;;3.72;;
18302;SDS011;9277;37.980;23.748;2022-12-18T09:38:17;8.68;;;3.83;;
18302;SDS011;9277;37.980;23.748;2022-12-18T09:40:45;13.30;;;4.10;;
18302;SDS011;9277;37.980;23.748;2022-12-18T09:43:14;15.43;;;4.40;;
18302;SDS011;9277;37.980;23.748;2022-12-18T09:45:42;16.67;;;4.45;;
18302;SDS011;9277;37.980;23.748;2022-12-18T09:48:10;11.68;;;4.63;;
18302;SDS011;9277;37.980;23.748;2022-12-18T09:50:43;17.05;;;4.93;;
18302;SDS011;9277;37.980;23.748;2022-12-18T09:53:12;12.35;;;4.13;;
18302;SDS011;9277;37.980;23.748;2022-12-18T09:55:41;12.25;;;4.13;;
18302;SDS011;9277;37.980;23.748;2022-12-18T09:58:12;12.18;;;4.60;;
18302;SDS011;9277;37.980;23.748;2022-12-18T10:00:41;18.30;;;4.88;;
18302;SDS011;9277;37.980;23.748;2022-12-18T10:03:08;15.77;;;5.20;;
18302;SDS011;9277;37.980;23.748;2022-12-18T10:05:37;11.55;;;4.47;;
18302;SDS011;9277;37.980;23.748;2022-12-18T10:08:09;13.57;;;5.00;;
18302;SDS011;9277;37.980;23.748;2022-12-18T10:10:38;19.48;;;6.22;;
18302;SDS011;9277;37.980;23.748;2022-12-18T10:13:08;20.20;;;6.70;;
18302;SDS011;9277;37.980;23.748;2022-12-18T10:15:36;18.85;;;6.30;;
18302;SDS011;9277;37.980;23.748;2022-12-18T10:18:10;15.75;;;6.10;;
18302;SDS011;9277;37.980;23.748;2022-12-18T10:20:41;15.70;;;5.75;;
18302;SDS011;9277;37.980;23.748;2022-12-18T10:23:12;23.63;;;6.57;;
18302;SDS011;9277;37.980;23.748;2022-12-18T10:25:43;16.20;;;4.97;;
18302;SDS011;9277;37.980;23.748;2022-12-18T10:28:14;16.25;;;5.40;;
18302;SDS011;9277;37.980;23.748;2022-12-18T10:30:42;20.67;;;6.40;;
18302;SDS011;9277;37.980;23.748;2022-12-18T10:33:10;23.27;;;6.20;;
18302;SDS011;9277;37.980;23.748;2022-12-18T10:35:42;25.50;;;7.22;;
18302;SDS011;9277;37.980;23.748;2022-12-18T10:38:22;16.67;;;6.00;;
18302;SDS011;9277;37.980;23.748;2022-12-18T10:40:50;14.57;;;5.53;;
18302;SDS011;9277;37.980;23.748;2022-12-18T10:43:20;12.95;;;5.55;;
18302;SDS011;9277;37.980;23.748;2022-12-18T10:45:57;11.30;;;6.20;;
18302;SDS011;9277;37.980;23.748;2022-12-18T10:48:24;19.15;;;6.47;;
18302;SDS011;9277;37.980;23.748;2022-12-18T10:50:51;15.50;;;6.03;;
18302;SDS011;9277;37.980;23.748;2022-12-18T10:53:19;18.00;;;5.78;;
18302;SDS011;9277;37.980;23.748;2022-12-18T10:55:48;13.20;;;5.50;;
18302;SDS011;9277;37.980;23.748;2022-12-18T10:58:21;16.77;;;6.13;;
18302;SDS011;9277;37.980;23.748;2022-12-18T11:01:01;19.17;;;6.30;;
18302;SDS011;9277;37.980;23.748;2022-12-18T11:03:29;20.52;;;6.28;;
18302;SDS011;9277;37.980;23.748;2022-12-18T11:06:03;13.00;;;5.75;;
18302;SDS011;9277;37.980;23.748;2022-12-18T11:08:31;20.42;;;5.90;;
18302;SDS011;9277;37.980;23.748;2022-12-18T11:10:59;19.67;;;7.18;;
18302;SDS011;9277;37.980;23.748;2022-12-18T11:13:27;24.52;;;7.20;;
18302;SDS011;9277;37.980;23.748;2022-12-18T11:15:54;19.10;;;6.25;;
18302;SDS011;9277;37.980;23.748;2022-12-18T11:18:22;14.93;;;5.35;;
18302;SDS011;9277;37.980;23.748;2022-12-18T11:20:52;16.35;;;7.03;;
18302;SDS011;9277;37.980;23.748;2022-12-18T11:23:20;10.27;;;5.05;;
18302;SDS011;9277;37.980;23.748;2022-12-18T11:25:52;14.63;;;4.97;;
18302;SDS011;9277;37.980;23.748;2022-12-18T11:28:34;10.60;;;4.70;;
18302;SDS011;9277;37.980;23.748;2022-12-18T11:31:18;12.95;;;4.78;;
18302;SDS011;9277;37.980;23.748;2022-12-18T11:33:46;13.30;;;5.22;;
18302;SDS011;9277;37.980;23.748;2022-12-18T11:36:13;12.38;;;5.40;;
18302;SDS011;9277;37.980;23.748;2022-12-18T11:38:41;10.95;;;5.57;;
18302;SDS011;9277;37.980;23.748;2022-12-18T11:41:14;21.00;;;6.70;;
18302;SDS011;9277;37.980;23.748;2022-12-18T11:44:13;16.17;;;6.55;;
18302;SDS011;9277;37.980;23.748;2022-12-18T11:46:43;14.23;;;6.43;;
18302;SDS011;9277;37.980;23.748;2022-12-18T11:49:12;17.83;;;7.05;;
18302;SDS011;9277;37.980;23.748;2022-12-18T11:51:41;20.90;;;7.38;;
18302;SDS011;9277;37.980;23.748;2022-12-18T11:54:10;13.88;;;5.95;;
18302;SDS011;9277;37.980;23.748;2022-12-18T11:56:39;21.52;;;8.13;;
18302;SDS011;9277;37.980;23.748;2022-12-18T11:59:09;16.65;;;7.10;;
18302;SDS011;9277;37.980;23.748;2022-12-18T12:01:46;24.90;;;7.70;;
18302;SDS011;9277;37.980;23.748;2022-12-18T12:04:28;23.35;;;7.47;;
18302;SDS011;9277;37.980;23.748;2022-12-18T12:07:02;23.63;;;8.60;;
18302;SDS011;9277;37.980;23.748;2022-12-18T12:09:35;17.20;;;7.88;;
18302;SDS011;9277;37.980;23.748;2022-12-18T12:12:09;18.77;;;8.52;;
18302;SDS011;9277;37.980;23.748;2022-12-18T12:14:42;22.98;;;6.60;;
18302;SDS011;9277;37.980;23.748;2022-12-18T12:17:12;25.77;;;7.03;;
18302;SDS011;9277;37.980;23.748;2022-12-18T12:19:43;14.18;;;6.45;;
18302;SDS011;9277;37.980;23.748;2022-12-18T12:22:13;16.98;;;6.78;;
18302;SDS011;9277;37.980;23.748;2022-12-18T12:24:48;18.27;;;6.75;;
18302;SDS011;9277;37.980;23.748;2022-12-18T12:27:19;22.90;;;7.70;;
18302;SDS011;9277;37.980;23.748;2022-12-18T12:29:52;24.05;;;6.93;;
18302;SDS011;9277;37.980;23.748;2022-12-18T12:32:30;12.30;;;5.70;;
18302;SDS011;9277;37.980;23.748;2022-12-18T12:35:03;24.23;;;5.93;;
18302;SDS011;9277;37.980;23.748;2022-12-18T12:37:34;19.88;;;6.60;;
18302;SDS011;9277;37.980;23.748;2022-12-18T12:40:04;15.68;;;5.80;;
18302;SDS011;9277;37.980;23.748;2022-12-18T12:42:32;17.58;;;5.63;;
18302;SDS011;9277;37.980;23.748;2022-12-18T12:45:18;14.27;;;5.47;;
18302;SDS011;9277;37.980;23.748;2022-12-18T12:47:48;19.20;;;6.80;;
18302;SDS011;9277;37.980;23.748;2022-12-18T12:50:17;22.85;;;7.35;;
18302;SDS011;9277;37.980;23.748;2022-12-18T12:52:45;17.27;;;7.38;;
18302;SDS011;9277;37.980;23.748;2022-12-18T12:55:13;19.65;;;7.78;;
18302;SDS011;9277;37.980;23.748;2022-12-18T12:57:43;13.52;;;6.53;;
18302;SDS011;9277;37.980;23.748;2022-12-18T13:00:13;20.30;;;5.78;;
18302;SDS011;9277;37.980;23.748;2022-12-18T13:02:42;24.08;;;6.72;;
18302;SDS011;9277;37.980;23.748;2022-12-18T13:05:16;19.25;;;6.53;;
18302;SDS011;9277;37.980;23.748;2022-12-18T13:07:46;13.82;;;4.85;;
18302;SDS011;9277;37.980;23.748;2022-12-18T13:10:32;12.65;;;4.70;;
18302;SDS011;9277;37.980;23.748;2022-12-18T13:13:00;12.07;;;5.20;;
18302;SDS011;9277;37.980;23.748;2022-12-18T13:15:28;13.95;;;5.47;;
18302;SDS011;9277;37.980;23.748;2022-12-18T13:18:05;22.10;;;4.78;;
18302;SDS011;9277;37.980;23.748;2022-12-18T13:20:38;9.82;;;4.15;;
18302;SDS011;9277;37.980;23.748;2022-12-18T13:25:47;10.63;;;3.90;;
18302;SDS011;9277;37.980;23.748;2022-12-18T13:28:14;12.27;;;4.90;;
18302;SDS011;9277;37.980;23.748;2022-12-18T13:30:48;18.15;;;4.70;;
18302;SDS011;9277;37.980;23.748;2022-12-18T13:33:37;13.55;;;4.93;;
18302;SDS011;9277;37.980;23.748;2022-12-18T13:36:12;15.50;;;5.03;;
18302;SDS011;9277;37.980;23.748;2022-12-18T13:38:39;16.48;;;5.68;;
18302;SDS011;9277;37.980;23.748;2022-12-18T13:41:21;13.52;;;4.38;;
18302;SDS011;9277;37.980;23.748;2022-12-18T13:43:49;10.57;;;4.68;;
18302;SDS011;9277;37.980;23.748;2022-12-18T13:46:23;11.65;;;4.70;;
18302;SDS011;9277;37.980;23.748;2022-12-18T13:48:52;15.05;;;4.82;;
18302;SDS011;9277;37.980;23.748;2022-12-18T13:51:21;11.07;;;4.32;;
18302;SDS011;9277;37.980;23.748;2022-12-18T13:53:49;9.77;;;4.50;;
18302;SDS011;9277;37.980;23.748;2022-12-18T13:56:17;10.15;;;4.90;;
18302;SDS011;9277;37.980;23.748;2022-12-18T14:01:29;8.65;;;4.20;;
18302;SDS011;9277;37.980;23.748;2022-12-18T14:04:08;14.23;;;4.97;;
18302;SDS011;9277;37.980;23.748;2022-12-18T14:06:36;13.25;;;4.90;;
18302;SDS011;9277;37.980;23.748;2022-12-18T14:09:04;9.85;;;4.10;;
18302;SDS011;9277;37.980;23.748;2022-12-18T14:11:31;16.17;;;4.75;;
18302;SDS011;9277;37.980;23.748;2022-12-18T14:13:58;12.20;;;4.95;;
18302;SDS011;9277;37.980;23.748;2022-12-18T14:16:25;11.45;;;4.75;;
18302;SDS011;9277;37.980;23.748;2022-12-18T14:18:52;9.27;;;4.30;;
18302;SDS011;9277;37.980;23.748;2022-12-18T14:21:21;14.52;;;4.90;;
18302;SDS011;9277;37.980;23.748;2022-12-18T14:23:49;17.08;;;4.22;;
18302;SDS011;9277;37.980;23.748;2022-12-18T14:26:29;14.55;;;4.28;;
18302;SDS011;9277;37.980;23.748;2022-12-18T14:28:58;17.25;;;4.32;;
18302;SDS011;9277;37.980;23.748;2022-12-18T14:31:26;18.25;;;5.38;;
18302;SDS011;9277;37.980;23.748;2022-12-18T14:33:54;15.02;;;4.88;;
18302;SDS011;9277;37.980;23.748;2022-12-18T14:36:21;11.70;;;5.07;;
18302;SDS011;9277;37.980;23.748;2022-12-18T14:38:51;7.80;;;4.25;;
18302;SDS011;9277;37.980;23.748;2022-12-18T14:41:19;15.70;;;5.05;;
18302;SDS011;9277;37.980;23.748;2022-12-18T14:43:47;11.65;;;4.28;;
18302;SDS011;9277;37.980;23.748;2022-12-18T14:46:32;9.68;;;3.85;;
18302;SDS011;9277;37.980;23.748;2022-12-18T14:48:59;12.00;;;3.95;;
18302;SDS011;9277;37.980;23.748;2022-12-18T14:51:27;7.60;;;3.47;;
18302;SDS011;9277;37.980;23.748;2022-12-18T14:53:56;8.27;;;4.28;;
18302;SDS011;9277;37.980;23.748;2022-12-18T14:56:24;9.32;;;3.80;;
18302;SDS011;9277;37.980;23.748;2022-12-18T14:58:52;8.90;;;4.38;;
18302;SDS011;9277;37.980;23.748;2022-12-18T15:01:21;9.98;;;4.50;;
18302;SDS011;9277;37.980;23.748;2022-12-18T15:03:49;9.75;;;4.00;;
18302;SDS011;9277;37.980;23.748;2022-12-18T15:06:17;10.15;;;3.92;;
18302;SDS011;9277;37.980;23.748;2022-12-18T15:08:44;11.18;;;4.40;;
18302;SDS011;9277;37.980;23.748;2022-12-18T15:11:33;8.40;;;4.63;;
18302;SDS011;9277;37.980;23.748;2022-12-18T15:16:42;12.10;;;3.72;;
18302;SDS011;9277;37.980;23.748;2022-12-18T15:19:09;8.95;;;3.67;;
18302;SDS011;9277;37.980;23.748;2022-12-18T15:21:36;6.90;;;3.30;;
18302;SDS011;9277;37.980;23.748;2022-12-18T15:24:13;7.47;;;3.67;;
18302;SDS011;9277;37.980;23.748;2022-12-18T15:26:44;7.60;;;3.67;;
18302;SDS011;9277;37.980;23.748;2022-12-18T15:29:15;10.02;;;4.15;;
18302;SDS011;9277;37.980;23.748;2022-12-18T15:31:57;11.75;;;4.28;;
18302;SDS011;9277;37.980;23.748;2022-12-18T15:34:24;12.77;;;4.60;;